createdAt,value
2023-05-06T00:00:50.471Z,15.50
2023-05-06T00:06:53.795Z,15.40
2023-05-06T00:12:56.565Z,15.30
2023-05-06T00:18:58.881Z,15.30
2023-05-06T00:25:01.505Z,15.20
2023-05-06T00:31:03.798Z,15.10
2023-05-06T00:37:06.203Z,15.10
2023-05-06T00:43:08.551Z,15.10
2023-05-06T00:49:13.411Z,15.10
2023-05-06T00:55:15.939Z,15.10
2023-05-06T01:01:18.246Z,15.00
2023-05-06T01:07:41.238Z,14.80
2023-05-06T01:13:57.598Z,14.70
2023-05-06T01:20:02.282Z,14.70
2023-05-06T01:26:04.670Z,14.50
2023-05-06T01:32:17.294Z,14.40
2023-05-06T01:38:37.651Z,14.30
2023-05-06T01:44:40.627Z,14.20
2023-05-06T01:50:45.009Z,14.20
2023-05-06T01:56:47.450Z,14.10
2023-05-06T02:02:50.804Z,14.10
2023-05-06T02:08:53.688Z,14.00
2023-05-06T02:14:59.172Z,13.90
2023-05-06T02:21:02.258Z,13.80
2023-05-06T02:27:04.708Z,13.80
2023-05-06T02:33:07.173Z,13.90
2023-05-06T02:39:09.398Z,13.80
2023-05-06T02:45:12.151Z,13.70
2023-05-06T02:51:14.609Z,13.60
2023-05-06T02:57:17.160Z,13.50
2023-05-06T03:03:19.547Z,13.40
2023-05-06T03:09:22.052Z,13.30
2023-05-06T03:15:24.958Z,13.30
2023-05-06T03:21:27.275Z,13.20
2023-05-06T03:27:29.774Z,13.20
2023-05-06T03:33:37.727Z,13.30
2023-05-06T03:39:42.315Z,13.40
2023-05-06T03:45:46.249Z,13.60
2023-05-06T03:51:49.169Z,13.80
2023-05-06T03:57:55.714Z,14.00
2023-05-06T04:03:58.147Z,14.30
2023-05-06T04:10:01.936Z,14.60
2023-05-06T04:16:05.886Z,15.00
2023-05-06T04:22:17.952Z,15.30
2023-05-06T04:28:20.437Z,15.60
2023-05-06T04:34:28.140Z,15.90
2023-05-06T04:40:36.854Z,16.20
2023-05-06T04:46:39.642Z,16.60
2023-05-06T04:52:42.159Z,16.80
2023-05-06T04:58:46.144Z,17.20
2023-05-06T05:04:49.009Z,17.60
2023-05-06T05:10:51.284Z,17.80
2023-05-06T05:16:56.884Z,18.30
2023-05-06T05:22:59.342Z,18.40
2023-05-06T05:29:02.539Z,18.90
2023-05-06T05:35:06.308Z,19.20
2023-05-06T05:41:09.092Z,19.50
2023-05-06T05:47:12.261Z,20.10
2023-05-06T05:53:15.671Z,25.90
2023-05-06T05:59:18.245Z,27.60
2023-05-06T06:05:23.452Z,29.20
2023-05-06T06:11:28.873Z,29.10
2023-05-06T06:17:31.438Z,30.30
2023-05-06T06:23:34.491Z,30.00
2023-05-06T06:29:36.945Z,30.50
2023-05-06T06:35:39.361Z,31.30
2023-05-06T06:41:42.112Z,31.80
2023-05-06T06:47:44.400Z,31.30
2023-05-06T06:53:48.818Z,32.60
2023-05-06T06:59:53.062Z,31.60
2023-05-06T07:05:55.228Z,31.90
2023-05-06T07:11:58.891Z,32.00
2023-05-06T07:18:01.670Z,31.60
2023-05-06T07:24:04.302Z,32.10
2023-05-06T07:30:07.295Z,32.40
2023-05-06T07:36:09.576Z,32.40
2023-05-06T07:42:13.535Z,32.70
2023-05-06T07:48:16.992Z,30.10
2023-05-06T07:54:21.034Z,31.30
2023-05-06T08:00:26.566Z,31.70
2023-05-06T08:06:28.908Z,31.60
2023-05-06T08:12:31.650Z,30.80
2023-05-06T08:18:34.243Z,31.90
2023-05-06T08:24:36.502Z,32.40
2023-05-06T08:30:38.861Z,31.80
2023-05-06T08:36:41.383Z,32.00
2023-05-06T08:42:46.220Z,32.70
2023-05-06T08:48:48.583Z,30.50
2023-05-06T08:54:55.125Z,31.90
2023-05-06T09:00:58.140Z,30.70
2023-05-06T09:07:00.701Z,31.40
2023-05-06T09:13:03.023Z,30.70
2023-05-06T09:19:06.237Z,31.40
2023-05-06T09:25:09.404Z,31.20
2023-05-06T09:31:15.504Z,30.80
2023-05-06T09:37:18.114Z,31.10
2023-05-06T09:43:21.467Z,29.60
2023-05-06T09:49:24.562Z,29.30
2023-05-06T09:55:27.686Z,29.10
2023-05-06T10:01:36.947Z,27.80
2023-05-06T10:07:41.920Z,27.10
2023-05-06T10:13:46.013Z,29.00
2023-05-06T10:19:52.744Z,28.50
2023-05-06T10:25:57.792Z,28.70
2023-05-06T10:32:02.306Z,28.10
2023-05-06T10:38:07.421Z,29.40
2023-05-06T10:44:10.495Z,30.00
2023-05-06T10:50:24.274Z,28.70
2023-05-06T10:56:27.173Z,28.90
2023-05-06T11:02:31.524Z,28.50
2023-05-06T11:08:34.688Z,27.60
2023-05-06T11:14:38.984Z,28.70
2023-05-06T11:20:41.533Z,27.60
2023-05-06T11:26:44.134Z,27.30
2023-05-06T11:32:47.410Z,27.20
2023-05-06T11:38:54.949Z,27.90
2023-05-06T11:45:02.173Z,26.70
2023-05-06T11:51:04.560Z,27.60
2023-05-06T11:57:09.788Z,27.30
2023-05-06T12:03:15.342Z,28.70
2023-05-06T12:09:18.189Z,30.20
2023-05-06T12:15:20.717Z,30.60
2023-05-06T12:21:27.418Z,26.40
2023-05-06T12:27:36.750Z,29.90
2023-05-06T12:33:46.941Z,30.40
2023-05-06T12:39:49.217Z,30.90
2023-05-06T12:46:04.818Z,31.10
2023-05-06T12:52:08.523Z,31.40
2023-05-06T12:58:17.851Z,30.90
2023-05-06T13:04:21.624Z,30.30
2023-05-06T13:10:24.067Z,28.20
2023-05-06T13:16:26.975Z,26.60
2023-05-06T13:22:29.713Z,25.50
2023-05-06T13:28:34.089Z,25.20
2023-05-06T13:34:36.633Z,24.10
2023-05-06T13:40:38.850Z,24.10
2023-05-06T13:46:41.748Z,23.80
2023-05-06T13:52:45.008Z,23.60
2023-05-06T13:58:47.388Z,23.50
2023-05-06T14:04:50.105Z,23.20
2023-05-06T14:10:52.404Z,23.20
2023-05-06T14:16:55.972Z,23.20
2023-05-06T14:22:58.647Z,23.20
2023-05-06T14:29:01.437Z,23.00
2023-05-06T14:35:04.382Z,22.90
2023-05-06T14:41:06.691Z,22.80
2023-05-06T14:47:09.010Z,22.70
2023-05-06T14:53:11.768Z,22.60
2023-05-06T14:59:14.536Z,22.50
2023-05-06T15:05:16.864Z,22.40
2023-05-06T15:11:19.141Z,22.50
2023-05-06T15:17:21.865Z,22.40
2023-05-06T15:23:25.112Z,22.10
2023-05-06T15:29:27.592Z,22.10
2023-05-06T15:35:31.420Z,21.90
2023-05-06T15:41:36.192Z,21.70
2023-05-06T15:47:38.506Z,21.60
2023-05-06T15:53:41.123Z,21.60
2023-05-06T15:59:43.536Z,21.50
2023-05-06T16:05:45.814Z,21.30
2023-05-06T16:11:48.242Z,21.20
2023-05-06T16:17:50.588Z,21.10
2023-05-06T16:23:53.345Z,20.90
2023-05-06T16:29:55.944Z,20.70
2023-05-06T16:35:58.790Z,20.50
2023-05-06T16:42:01.400Z,20.30
2023-05-06T16:48:03.979Z,20.20
2023-05-06T16:54:06.520Z,20.10
2023-05-06T17:00:12.444Z,19.90
2023-05-06T17:06:15.147Z,19.80
2023-05-06T17:12:24.284Z,19.60
2023-05-06T17:18:26.698Z,19.40
2023-05-06T17:24:29.053Z,19.20
2023-05-06T17:30:31.589Z,19.10
2023-05-06T17:36:33.861Z,18.90
2023-05-06T17:42:36.286Z,18.80
2023-05-06T17:48:38.660Z,18.60
2023-05-06T17:54:40.907Z,18.40
2023-05-06T18:00:43.458Z,18.30
2023-05-06T18:06:46.899Z,18.30
2023-05-06T18:12:49.397Z,18.30
2023-05-06T18:18:51.430Z,18.30
2023-05-06T18:24:55.646Z,18.30
2023-05-06T18:30:57.945Z,18.30
2023-05-06T18:37:00.220Z,18.20
2023-05-06T18:43:02.428Z,18.10
2023-05-06T18:49:04.653Z,17.90
2023-05-06T18:55:08.022Z,17.80
2023-05-06T19:01:11.455Z,17.60
2023-05-06T19:07:16.149Z,17.50
2023-05-06T19:13:18.999Z,17.40
2023-05-06T19:19:21.212Z,17.40
2023-05-06T19:25:23.801Z,17.40
2023-05-06T19:31:26.706Z,17.20
2023-05-06T19:37:30.782Z,17.10
2023-05-06T19:43:33.512Z,17.00
2023-05-06T19:49:36.216Z,16.90
2023-05-06T19:55:38.556Z,16.80
2023-05-06T20:01:41.091Z,16.70
2023-05-06T20:07:43.869Z,16.50
2023-05-06T20:13:46.416Z,16.40
2023-05-06T20:19:49.209Z,16.30
2023-05-06T20:25:51.700Z,16.10
2023-05-06T20:31:53.927Z,15.90
2023-05-06T20:37:56.328Z,15.70
2023-05-06T20:43:58.715Z,15.60
2023-05-06T20:50:01.118Z,15.50
2023-05-06T20:56:03.359Z,15.40
2023-05-06T21:02:06.225Z,15.40
2023-05-06T21:08:09.409Z,15.40
2023-05-06T21:14:12.421Z,15.50
2023-05-06T21:20:15.031Z,15.70
2023-05-06T21:26:17.479Z,15.80
2023-05-06T21:32:19.904Z,15.90
2023-05-06T21:38:22.464Z,16.00
2023-05-06T21:44:24.888Z,16.00
2023-05-06T21:50:27.332Z,16.00
2023-05-06T21:56:29.799Z,16.00
2023-05-06T22:02:32.224Z,15.90
2023-05-06T22:08:34.632Z,15.70
2023-05-06T22:14:41.091Z,15.70
2023-05-06T22:20:44.629Z,15.70
2023-05-06T22:26:47.214Z,15.70
2023-05-06T22:32:49.685Z,15.70
2023-05-06T22:38:52.014Z,15.60
2023-05-06T22:44:54.306Z,15.50
2023-05-06T22:50:56.926Z,15.30
2023-05-06T22:56:59.354Z,15.10
2023-05-06T23:03:01.720Z,15.00
2023-05-06T23:09:06.120Z,14.80
2023-05-06T23:15:08.862Z,14.60
2023-05-06T23:21:12.930Z,14.40
2023-05-06T23:27:15.497Z,14.20
2023-05-06T23:33:17.940Z,14.10
2023-05-06T23:39:20.493Z,13.90
2023-05-06T23:45:22.821Z,13.70
2023-05-06T23:51:25.354Z,13.60
2023-05-06T23:57:27.726Z,13.50
